Time;durP1;ratioP1;P1;durP2;ratioP2;P2;SDS_P1;SDS_P2;PMS_P1;PMS_P2;Temp;Humidity;BMP_temperature;BMP_pressure;BME280_temperature;BME280_humidity;BME280_pressure;Samples;Min_cycle;Max_cycle;Signal;HPM_P1;HPM_P2
2022/10/07 00:01:00;;;;;;;33.30;21.13;;;;;;;;;;5093777;28;20126;-42
2022/10/07 00:03:26;;;;;;;34.70;20.98;;;;;;;;;;5094216;28;20364;-44
2022/10/07 00:06:01;;;;;;;30.40;19.85;;;;;;;;;;5093483;28;20095;-45
2022/10/07 00:08:27;;;;;;;33.00;19.33;;;;;;;;;;5093790;28;20118;-44
2022/10/07 00:10:52;;;;;;;25.10;16.70;;;;;;;;;;5093111;28;20530;-44
2022/10/07 00:13:17;;;;;;;25.80;16.95;;;;;;;;;;5093691;28;20479;-44
2022/10/07 00:15:43;;;;;;;27.70;16.83;;;;;;;;;;5093408;28;20020;-44
2022/10/07 00:18:08;;;;;;;26.67;16.50;;;;;;;;;;5093857;28;20324;-44
2022/10/07 00:20:39;;;;;;;27.00;16.02;;;;;;;;;;5093939;28;20252;-44
2022/10/07 00:23:05;;;;;;;25.15;15.93;;;;;;;;;;5093598;28;20020;-44
2022/10/07 00:25:30;;;;;;;25.33;14.93;;;;;;;;;;5093259;28;20035;-44
2022/10/07 00:27:56;;;;;;;21.00;15.07;;;;;;;;;;5093141;28;20551;-45
2022/10/07 00:30:21;;;;;;;27.25;17.70;;;;;;;;;;5093576;28;20024;-43
2022/10/07 00:32:47;;;;;;;25.93;15.60;;;;;;;;;;5093046;28;20026;-44
2022/10/07 00:35:12;;;;;;;23.85;14.90;;;;;;;;;;5093476;28;20318;-43
2022/10/07 00:37:41;;;;;;;25.67;15.07;;;;;;;;;;5093101;28;20013;-46
2022/10/07 00:40:07;;;;;;;;;;;;;;;;;;5093489;28;20016;-44
2022/10/07 00:42:34;;;;;;;22.42;15.02;;;;;;;;;;5093015;28;19951;-42
2022/10/07 00:44:59;;;;;;;21.73;15.52;;;;;;;;;;5092949;28;20426;-45
2022/10/07 00:47:29;;;;;;;23.75;15.60;;;;;;;;;;5092728;28;20048;-44
2022/10/07 00:50:03;;;;;;;26.25;16.10;;;;;;;;;;5093177;28;20028;-42
2022/10/07 00:52:30;;;;;;;22.05;14.63;;;;;;;;;;5092926;28;20111;-44
2022/10/07 00:54:56;;;;;;;21.00;14.05;;;;;;;;;;5092757;28;20675;-43
2022/10/07 00:57:23;;;;;;;23.35;15.52;;;;;;;;;;5093349;28;20103;-43
2022/10/07 00:59:48;;;;;;;22.17;14.90;;;;;;;;;;5092899;28;20512;-44
2022/10/07 01:02:14;;;;;;;24.30;15.30;;;;;;;;;;5092516;28;20024;-44
2022/10/07 01:04:40;;;;;;;22.05;15.52;;;;;;;;;;5092924;28;20024;-43
2022/10/07 01:07:05;;;;;;;20.70;15.10;;;;;;;;;;5092511;28;20024;-44
2022/10/07 01:09:30;;;;;;;27.77;16.17;;;;;;;;;;5092849;28;20099;-44
2022/10/07 01:12:03;;;;;;;21.73;14.77;;;;;;;;;;5092735;28;20028;-44
2022/10/07 01:14:37;;;;;;;21.25;14.23;;;;;;;;;;5092140;28;20481;-43
2022/10/07 01:17:03;;;;;;;24.42;14.93;;;;;;;;;;5092549;28;20028;-43
2022/10/07 01:19:46;;;;;;;24.60;15.83;;;;;;;;;;5092492;28;20025;-44
2022/10/07 01:22:12;;;;;;;25.08;15.00;;;;;;;;;;5092025;28;20295;-43
2022/10/07 01:24:55;;;;;;;17.47;13.03;;;;;;;;;;5092180;28;20435;-43
2022/10/07 01:27:23;;;;;;;21.08;14.98;;;;;;;;;;5092417;28;20240;-43
2022/10/07 01:29:55;;;;;;;23.67;14.60;;;;;;;;;;5092339;28;20058;-44
2022/10/07 01:32:26;;;;;;;23.13;15.60;;;;;;;;;;5092153;28;20061;-43
2022/10/07 01:34:53;;;;;;;22.08;14.93;;;;;;;;;;5091845;28;20142;-44
2022/10/07 01:37:20;;;;;;;24.50;15.90;;;;;;;;;;5092485;28;20024;-44
2022/10/07 01:39:48;;;;;;;23.48;14.95;;;;;;;;;;5091931;28;20016;-45
2022/10/07 01:42:14;;;;;;;32.00;14.18;;;;;;;;;;5091956;28;20024;-43
2022/10/07 01:44:40;;;;;;;28.77;14.63;;;;;;;;;;5091685;28;20042;-43
2022/10/07 01:47:06;;;;;;;22.15;14.90;;;;;;;;;;5091555;28;20023;-43
2022/10/07 01:49:31;;;;;;;21.20;15.60;;;;;;;;;;5091782;28;20077;-44
2022/10/07 01:52:04;;;;;;;24.02;15.07;;;;;;;;;;5091578;28;20024;-45
2022/10/07 01:54:29;;;;;;;31.42;15.38;;;;;;;;;;5091650;28;20028;-42
2022/10/07 01:57:10;;;;;;;22.10;14.77;;;;;;;;;;5091857;28;20080;-44
2022/10/07 01:59:38;;;;;;;20.90;14.27;;;;;;;;;;5091722;28;20492;-44
2022/10/07 02:02:07;;;;;;;24.02;14.10;;;;;;;;;;5091824;28;20040;-45
2022/10/07 02:04:32;;;;;;;23.90;15.40;;;;;;;;;;5092234;28;20058;-43
2022/10/07 02:07:16;;;;;;;23.87;15.30;;;;;;;;;;5091757;28;20074;-43
2022/10/07 02:09:57;;;;;;;21.75;14.10;;;;;;;;;;5091494;28;20271;-44
2022/10/07 02:12:31;;;;;;;22.13;13.88;;;;;;;;;;5091048;28;20103;-41
2022/10/07 02:15:07;;;;;;;18.90;13.57;;;;;;;;;;5091159;28;20062;-44
2022/10/07 02:17:36;;;;;;;19.17;13.90;;;;;;;;;;5091725;28;20042;-44
2022/10/07 02:20:02;;;;;;;19.35;13.80;;;;;;;;;;5091361;28;20475;-44
2022/10/07 02:22:27;;;;;;;21.55;14.60;;;;;;;;;;5090901;28;20378;-45
2022/10/07 02:24:54;;;;;;;24.70;14.23;;;;;;;;;;5091615;28;20026;-43
2022/10/07 02:27:23;;;;;;;21.63;13.30;;;;;;;;;;5091628;28;20016;-45
2022/10/07 02:29:50;;;;;;;23.70;14.48;;;;;;;;;;5091481;28;20114;-45
2022/10/07 02:32:18;;;;;;;25.83;13.90;;;;;;;;;;5091231;28;20036;-44
2022/10/07 02:34:45;;;;;;;19.83;13.20;;;;;;;;;;5092914;28;20031;-44
2022/10/07 02:37:23;;;;;;;18.50;13.05;;;;;;;;;;5094852;28;20028;-45
2022/10/07 02:39:49;;;;;;;19.17;12.77;;;;;;;;;;5095412;28;20024;-44
2022/10/07 02:42:33;;;;;;;22.98;13.48;;;;;;;;;;5095287;28;20034;-43
2022/10/07 02:45:02;;;;;;;18.23;12.35;;;;;;;;;;5095174;28;20061;-44
2022/10/07 02:47:37;;;;;;;20.17;13.23;;;;;;;;;;5095323;28;20044;-41
2022/10/07 02:50:06;;;;;;;25.33;14.40;;;;;;;;;;5095145;28;20119;-45
2022/10/07 02:52:31;;;;;;;23.73;12.50;;;;;;;;;;5095393;28;20410;-44
2022/10/07 02:54:59;;;;;;;19.45;14.27;;;;;;;;;;5095416;28;20038;-41
2022/10/07 02:57:25;;;;;;;23.02;13.98;;;;;;;;;;5094801;28;20488;-45
2022/10/07 02:59:52;;;;;;;25.35;14.20;;;;;;;;;;5095644;28;20031;-44
2022/10/07 03:02:40;;;;;;;22.88;13.57;;;;;;;;;;5094379;28;20020;-44
2022/10/07 03:05:06;;;;;;;24.17;15.07;;;;;;;;;;5081342;28;20375;-44
2022/10/07 03:07:32;;;;;;;19.55;13.32;;;;;;;;;;5095310;28;20016;-43
2022/10/07 03:09:57;;;;;;;20.13;13.02;;;;;;;;;;5095074;28;20016;-44
2022/10/07 03:12:22;;;;;;;23.95;13.65;;;;;;;;;;5095353;28;20103;-44
2022/10/07 03:14:48;;;;;;;25.60;12.95;;;;;;;;;;5094344;28;20028;-44
2022/10/07 03:17:14;;;;;;;20.50;13.60;;;;;;;;;;5094829;28;20016;-44
2022/10/07 03:19:40;;;;;;;20.88;13.73;;;;;;;;;;5094614;28;20020;-42
2022/10/07 03:22:05;;;;;;;25.70;14.50;;;;;;;;;;5094735;28;20024;-44
2022/10/07 03:24:30;;;;;;;24.48;13.80;;;;;;;;;;5094997;28;20486;-44
2022/10/07 03:26:55;;;;;;;23.23;14.32;;;;;;;;;;5094430;28;20028;-44
2022/10/07 03:29:21;;;;;;;26.05;14.07;;;;;;;;;;5094371;28;20161;-44
2022/10/07 03:31:46;;;;;;;22.13;14.18;;;;;;;;;;5094513;28;20024;-45
2022/10/07 03:34:11;;;;;;;27.65;14.35;;;;;;;;;;5094704;28;20440;-44
2022/10/07 03:36:38;;;;;;;29.10;15.25;;;;;;;;;;5094257;28;20020;-44
2022/10/07 03:39:03;;;;;;;26.17;14.70;;;;;;;;;;5094399;28;20041;-43
2022/10/07 03:41:28;;;;;;;23.45;13.68;;;;;;;;;;5094183;28;20096;-44
2022/10/07 03:43:56;;;;;;;24.58;13.95;;;;;;;;;;5094392;28;20048;-44
2022/10/07 03:46:21;;;;;;;24.95;14.57;;;;;;;;;;5093440;28;20016;-45
2022/10/07 03:48:46;;;;;;;22.02;14.88;;;;;;;;;;5094361;28;20046;-43
2022/10/07 03:51:12;;;;;;;26.25;14.77;;;;;;;;;;5094282;28;20016;-43
2022/10/07 03:53:38;;;;;;;30.73;15.00;;;;;;;;;;5094064;28;20467;-45
2022/10/07 03:56:03;;;;;;;27.00;14.65;;;;;;;;;;5093948;28;20046;-44
2022/10/07 03:58:28;;;;;;;32.13;15.25;;;;;;;;;;5094223;28;20548;-43
2022/10/07 04:01:07;;;;;;;34.63;15.55;;;;;;;;;;5093621;28;20019;-43
2022/10/07 04:03:33;;;;;;;27.57;17.03;;;;;;;;;;5093719;28;20032;-45
2022/10/07 04:05:59;;;;;;;28.67;14.68;;;;;;;;;;5094428;28;20103;-42
2022/10/07 04:08:27;;;;;;;26.52;14.52;;;;;;;;;;5093390;28;20119;-44
2022/10/07 04:10:52;;;;;;;32.30;14.73;;;;;;;;;;5093929;28;20026;-43
2022/10/07 04:13:17;;;;;;;34.28;15.68;;;;;;;;;;5093227;28;20111;-44
2022/10/07 04:15:43;;;;;;;34.38;16.25;;;;;;;;;;5094010;28;20024;-41
2022/10/07 04:18:08;;;;;;;30.58;16.45;;;;;;;;;;5093469;28;20023;-45
2022/10/07 04:20:36;;;;;;;31.10;16.30;;;;;;;;;;5093792;28;20095;-44
2022/10/07 04:23:01;;;;;;;34.35;16.65;;;;;;;;;;5093874;28;20045;-43
2022/10/07 04:25:32;;;;;;;29.67;16.23;;;;;;;;;;5093459;28;20020;-44
2022/10/07 04:27:58;;;;;;;35.58;16.33;;;;;;;;;;5092905;28;20060;-44
2022/10/07 04:30:24;;;;;;;27.45;16.98;;;;;;;;;;5093391;28;20279;-44
2022/10/07 04:32:50;;;;;;;28.65;16.83;;;;;;;;;;5093272;28;20024;-44
2022/10/07 04:35:19;;;;;;;28.73;16.95;;;;;;;;;;5093280;28;20019;-44
2022/10/07 04:37:46;;;;;;;27.48;16.38;;;;;;;;;;5093316;28;20482;-44
2022/10/07 04:40:11;;;;;;;34.03;18.25;;;;;;;;;;5093275;28;20028;-44
2022/10/07 04:45:21;;;;;;;33.50;19.08;;;;;;;;;;5093456;28;20035;-43
2022/10/07 04:47:46;;;;;;;33.17;19.20;;;;;;;;;;5093296;28;20052;-43
2022/10/07 04:50:11;;;;;;;41.33;18.70;;;;;;;;;;5092927;28;20008;-43
2022/10/07 04:52:41;;;;;;;33.78;18.48;;;;;;;;;;5092985;28;20297;-44
2022/10/07 04:55:06;;;;;;;25.95;17.25;;;;;;;;;;5092554;28;20028;-45
2022/10/07 04:57:32;;;;;;;32.40;18.27;;;;;;;;;;5092071;28;20024;-44
2022/10/07 04:59:57;;;;;;;32.10;17.97;;;;;;;;;;5093201;28;20099;-45
2022/10/07 05:02:22;;;;;;;40.67;19.42;;;;;;;;;;5092310;28;20271;-43
2022/10/07 05:04:47;;;;;;;34.57;18.97;;;;;;;;;;5092829;28;20466;-44
2022/10/07 05:07:13;;;;;;;30.90;18.42;;;;;;;;;;5092547;28;20648;-43
2022/10/07 05:09:38;;;;;;;32.75;19.85;;;;;;;;;;5092731;28;20023;-43
2022/10/07 05:12:04;;;;;;;38.53;20.07;;;;;;;;;;5092671;28;20012;-44
2022/10/07 05:14:31;;;;;;;35.22;18.77;;;;;;;;;;5092118;28;20318;-44
2022/10/07 05:16:56;;;;;;;29.48;18.90;;;;;;;;;;5092533;28;20545;-45
2022/10/07 05:19:22;;;;;;;26.35;16.08;;;;;;;;;;5091600;28;20099;-44
2022/10/07 05:21:47;;;;;;;32.17;19.90;;;;;;;;;;5091308;28;20047;-44
2022/10/07 05:24:12;;;;;;;30.60;18.67;;;;;;;;;;5092167;28;20028;-45
2022/10/07 05:26:37;;;;;;;33.92;18.92;;;;;;;;;;5091748;28;20044;-43
2022/10/07 05:29:03;;;;;;;29.67;20.38;;;;;;;;;;5092839;28;20459;-43
2022/10/07 05:31:28;;;;;;;30.98;20.35;;;;;;;;;;5092049;28;20069;-44
2022/10/07 05:33:55;;;;;;;33.88;20.15;;;;;;;;;;5092044;28;20485;-43
2022/10/07 05:36:20;;;;;;;27.58;18.90;;;;;;;;;;5092341;28;20020;-44
2022/10/07 05:38:46;;;;;;;61.13;22.73;;;;;;;;;;5074355;28;20042;-43
2022/10/07 05:41:11;;;;;;;30.30;19.20;;;;;;;;;;5083049;28;20066;-44
2022/10/07 05:43:40;;;;;;;50.88;22.50;;;;;;;;;;5088104;28;20430;-43
2022/10/07 05:46:07;;;;;;;48.22;22.52;;;;;;;;;;5073893;28;20031;-45
2022/10/07 05:48:33;;;;;;;33.45;19.45;;;;;;;;;;5072337;28;20507;-44
2022/10/07 05:50:59;;;;;;;31.80;19.67;;;;;;;;;;5070775;28;20037;-44
2022/10/07 05:53:25;;;;;;;31.10;17.85;;;;;;;;;;5088516;28;20048;-44
2022/10/07 05:55:51;;;;;;;32.15;18.35;;;;;;;;;;5082086;28;20421;-45
2022/10/07 05:58:17;;;;;;;44.10;17.25;;;;;;;;;;5071802;28;20040;-45
2022/10/07 06:00:52;;;;;;;36.17;19.38;;;;;;;;;;5078686;28;20012;-45
2022/10/07 06:03:18;;;;;;;28.00;17.80;;;;;;;;;;5052702;28;20391;-45
2022/10/07 06:05:44;;;;;;;26.40;15.13;;;;;;;;;;5087812;28;20008;-44
2022/10/07 06:08:10;;;;;;;28.55;18.30;;;;;;;;;;5073796;28;20027;-44
2022/10/07 06:13:19;;;;;;;25.48;18.05;;;;;;;;;;5082211;28;20731;-43
2022/10/07 06:15:44;;;;;;;29.13;17.77;;;;;;;;;;5089452;28;20347;-44
2022/10/07 06:18:09;;;;;;;25.97;16.13;;;;;;;;;;5088039;28;20236;-45
2022/10/07 06:20:34;;;;;;;21.60;15.77;;;;;;;;;;5075481;28;20237;-44
2022/10/07 06:23:00;;;;;;;21.83;15.53;;;;;;;;;;5073662;28;20443;-43
2022/10/07 06:25:25;;;;;;;23.03;17.33;;;;;;;;;;5073513;28;20617;-45
2022/10/07 06:27:50;;;;;;;24.77;16.25;;;;;;;;;;5068611;28;20238;-42
2022/10/07 06:30:15;;;;;;;26.90;17.63;;;;;;;;;;5082170;28;20031;-42
2022/10/07 06:32:41;;;;;;;25.17;16.67;;;;;;;;;;5090893;28;20719;-43
2022/10/07 06:35:06;;;;;;;30.15;18.58;;;;;;;;;;5076697;28;20024;-45
2022/10/07 06:37:32;;;;;;;22.55;15.48;;;;;;;;;;5074507;28;20570;-43
2022/10/07 06:39:57;;;;;;;21.45;15.85;;;;;;;;;;5071403;28;20046;-44
2022/10/07 06:42:22;;;;;;;22.13;15.50;;;;;;;;;;5075005;28;20514;-42
2022/10/07 06:44:48;;;;;;;18.08;13.15;;;;;;;;;;5074218;28;20063;-43
2022/10/07 06:47:13;;;;;;;26.45;15.82;;;;;;;;;;5071147;28;20025;-43
2022/10/07 06:49:38;;;;;;;20.87;14.53;;;;;;;;;;5089318;28;20044;-44
2022/10/07 06:52:04;;;;;;;28.15;15.93;;;;;;;;;;5070135;28;20261;-43
2022/10/07 06:54:29;;;;;;;25.05;15.40;;;;;;;;;;5083141;28;20362;-43
2022/10/07 06:56:55;;;;;;;25.35;16.33;;;;;;;;;;5071781;28;20028;-45
2022/10/07 06:59:20;;;;;;;17.40;12.82;;;;;;;;;;5080307;28;20089;-44
2022/10/07 07:01:45;;;;;;;20.13;13.10;;;;;;;;;;5070055;28;20017;-46
2022/10/07 07:04:11;;;;;;;16.90;11.93;;;;;;;;;;5073934;28;20028;-44
2022/10/07 07:06:36;;;;;;;19.70;11.60;;;;;;;;;;5069181;28;20021;-44
2022/10/07 07:09:04;;;;;;;19.63;13.15;;;;;;;;;;5073987;28;20122;-42
2022/10/07 07:11:35;;;;;;;17.90;12.90;;;;;;;;;;5075815;28;20432;-44
2022/10/07 07:14:02;;;;;;;14.40;11.07;;;;;;;;;;5069860;28;20166;-42
2022/10/07 07:16:28;;;;;;;19.25;12.60;;;;;;;;;;5076928;28;20149;-41
2022/10/07 07:18:54;;;;;;;17.45;12.75;;;;;;;;;;5077110;28;20099;-43
2022/10/07 07:21:20;;;;;;;17.65;12.73;;;;;;;;;;5076519;28;20578;-43
2022/10/07 07:23:45;;;;;;;16.88;12.52;;;;;;;;;;5076809;28;20576;-42
2022/10/07 07:26:11;;;;;;;17.10;11.32;;;;;;;;;;5073542;28;20482;-43
2022/10/07 07:28:36;;;;;;;20.08;11.45;;;;;;;;;;5070136;28;20022;-44
2022/10/07 07:31:08;;;;;;;14.82;10.98;;;;;;;;;;5090425;28;20118;-44
2022/10/07 07:33:34;;;;;;;18.13;11.95;;;;;;;;;;5079452;28;20028;-44
2022/10/07 07:35:59;;;;;;;20.10;11.32;;;;;;;;;;5090230;28;20016;-45
2022/10/07 07:38:24;;;;;;;16.45;11.23;;;;;;;;;;5086457;28;20636;-44
2022/10/07 07:40:52;;;;;;;15.43;9.98;;;;;;;;;;5080862;28;20016;-44
2022/10/07 07:43:17;;;;;;;15.82;11.50;;;;;;;;;;5087843;28;20118;-46
2022/10/07 07:45:43;;;;;;;18.33;11.68;;;;;;;;;;5092434;28;20016;-42
2022/10/07 07:48:08;;;;;;;12.23;9.35;;;;;;;;;;5081297;28;20045;-44
2022/10/07 07:50:33;;;;;;;17.80;10.37;;;;;;;;;;5074143;28;20033;-45
2022/10/07 07:53:01;;;;;;;12.25;8.55;;;;;;;;;;5072632;28;20264;-44
2022/10/07 07:55:26;;;;;;;15.30;9.77;;;;;;;;;;5061371;28;20204;-45
2022/10/07 07:57:51;;;;;;;12.50;7.60;;;;;;;;;;5072466;28;20024;-45
2022/10/07 08:00:17;;;;;;;14.20;9.00;;;;;;;;;;5076359;28;20437;-44
2022/10/07 08:02:43;;;;;;;18.50;9.13;;;;;;;;;;5078562;28;20032;-44
2022/10/07 08:05:09;;;;;;;11.10;8.77;;;;;;;;;;5080999;28;20040;-44
2022/10/07 08:07:34;;;;;;;13.13;7.65;;;;;;;;;;5082402;28;20028;-45
2022/10/07 08:10:00;;;;;;;14.15;8.10;;;;;;;;;;5073990;28;20372;-44
2022/10/07 08:12:25;;;;;;;12.45;8.20;;;;;;;;;;5078668;28;20401;-45
2022/10/07 08:14:51;;;;;;;11.68;7.68;;;;;;;;;;5082593;28;20102;-43
2022/10/07 08:17:16;;;;;;;13.10;7.75;;;;;;;;;;5086470;28;20024;-46
2022/10/07 08:19:41;;;;;;;10.97;8.10;;;;;;;;;;5073897;28;20478;-45
2022/10/07 08:22:07;;;;;;;12.83;7.17;;;;;;;;;;5071863;28;20250;-44
2022/10/07 08:24:33;;;;;;;14.40;7.38;;;;;;;;;;5077155;28;20265;-43
2022/10/07 08:26:58;;;;;;;9.20;7.10;;;;;;;;;;5086685;28;20066;-40
2022/10/07 08:29:23;;;;;;;15.55;7.90;;;;;;;;;;5078776;28;20099;-43
2022/10/07 08:31:48;;;;;;;10.40;7.13;;;;;;;;;;5075143;28;20024;-43
2022/10/07 08:34:14;;;;;;;11.30;8.03;;;;;;;;;;5076206;28;20124;-42
2022/10/07 08:36:42;;;;;;;11.80;7.03;;;;;;;;;;5088765;28;20244;-43
2022/10/07 08:39:09;;;;;;;15.68;8.52;;;;;;;;;;5080444;28;20456;-44
2022/10/07 08:41:40;;;;;;;17.75;7.93;;;;;;;;;;5091640;28;20044;-44
2022/10/07 08:44:12;;;;;;;13.38;7.15;;;;;;;;;;5085924;28;20515;-42
2022/10/07 08:46:40;;;;;;;12.63;7.22;;;;;;;;;;5091576;28;20024;-44
2022/10/07 08:49:10;;;;;;;10.88;6.70;;;;;;;;;;5082370;28;20054;-43
2022/10/07 08:51:47;;;;;;;14.85;7.35;;;;;;;;;;5077484;28;20032;-44
2022/10/07 08:54:13;;;;;;;9.82;6.03;;;;;;;;;;5088512;28;20059;-42
2022/10/07 08:56:39;;;;;;;9.20;6.22;;;;;;;;;;5079553;28;20101;-44
2022/10/07 08:59:12;;;;;;;10.32;6.35;;;;;;;;;;5083003;28;20113;-44
2022/10/07 09:01:42;;;;;;;13.55;6.20;;;;;;;;;;5073106;28;20163;-45
2022/10/07 09:04:17;;;;;;;14.73;6.05;;;;;;;;;;5075790;28;20115;-43
2022/10/07 09:06:51;;;;;;;9.75;5.35;;;;;;;;;;5071019;28;20607;-39
2022/10/07 09:09:22;;;;;;;9.13;5.35;;;;;;;;;;5076503;28;20032;-39
2022/10/07 09:11:48;;;;;;;8.88;5.28;;;;;;;;;;5080261;28;20378;-44
2022/10/07 09:14:17;;;;;;;8.25;5.53;;;;;;;;;;5072699;28;20055;-44
2022/10/07 09:16:43;;;;;;;7.93;5.43;;;;;;;;;;5084033;28;20028;-43
2022/10/07 09:19:27;;;;;;;10.15;5.75;;;;;;;;;;5073066;28;20036;-46
2022/10/07 09:21:56;;;;;;;8.70;5.38;;;;;;;;;;5071172;28;20063;-44
2022/10/07 09:24:23;;;;;;;11.73;5.50;;;;;;;;;;5075516;28;20032;-42
2022/10/07 09:26:50;;;;;;;11.60;5.30;;;;;;;;;;5087814;28;20394;-43
2022/10/07 09:29:17;;;;;;;8.48;5.47;;;;;;;;;;5090984;28;20106;-42
2022/10/07 09:31:42;;;;;;;10.60;5.15;;;;;;;;;;5076960;28;20108;-41
2022/10/07 09:34:17;;;;;;;9.37;5.87;;;;;;;;;;5091849;28;20494;-45
2022/10/07 09:37:00;;;;;;;11.93;5.38;;;;;;;;;;5083870;28;20532;-44
2022/10/07 09:39:26;;;;;;;10.05;6.05;;;;;;;;;;5076189;28;20024;-43
2022/10/07 09:41:51;;;;;;;8.77;5.75;;;;;;;;;;5074063;28;20062;-42
2022/10/07 09:44:18;;;;;;;9.70;6.00;;;;;;;;;;5072012;28;20048;-43
2022/10/07 09:46:46;;;;;;;8.77;5.28;;;;;;;;;;5059338;28;20020;-44
2022/10/07 09:49:27;;;;;;;8.27;5.40;;;;;;;;;;5082288;28;20052;-44
2022/10/07 09:52:01;;;;;;;11.73;7.30;;;;;;;;;;5079501;28;20032;-45
2022/10/07 09:54:27;;;;;;;10.38;6.47;;;;;;;;;;5070698;28;20032;-43
2022/10/07 09:56:55;;;;;;;12.65;6.72;;;;;;;;;;5084951;28;20585;-42
2022/10/07 09:59:20;;;;;;;10.52;6.22;;;;;;;;;;5071092;28;20043;-45
2022/10/07 10:02:12;;;;;;;13.43;5.97;;;;;;;;;;5082232;28;20483;-45
2022/10/07 10:04:45;;;;;;;8.98;6.03;;;;;;;;;;5065672;28;20254;-42
2022/10/07 10:07:27;;;;;;;10.15;5.72;;;;;;;;;;5071133;28;20081;-44
2022/10/07 10:09:54;;;;;;;6.30;5.15;;;;;;;;;;5070897;28;20024;-43
2022/10/07 10:12:20;;;;;;;9.93;5.88;;;;;;;;;;5079799;28;20103;-42
2022/10/07 10:14:45;;;;;;;6.72;5.93;;;;;;;;;;5080106;28;20349;-41
2022/10/07 10:17:33;;;;;;;8.83;5.67;;;;;;;;;;5070122;28;20027;-42
2022/10/07 10:20:45;;;;;;;9.73;5.68;;;;;;;;;;5057369;28;20086;-42
2022/10/07 10:23:22;;;;;;;9.57;4.70;;;;;;;;;;4988099;28;20034;-44
2022/10/07 10:28:59;;;;;;;6.00;4.32;;;;;;;;;;5090744;28;20050;-39
2022/10/07 10:31:43;;;;;;;8.07;5.32;;;;;;;;;;5091024;28;20024;-41
2022/10/07 10:34:26;;;;;;;9.93;5.20;;;;;;;;;;5088106;28;20096;-40
2022/10/07 10:37:01;;;;;;;8.32;5.20;;;;;;;;;;5079462;28;20026;-40
2022/10/07 10:39:39;;;;;;;10.30;5.63;;;;;;;;;;5076764;28;20603;-44
2022/10/07 10:42:07;;;;;;;5.13;4.55;;;;;;;;;;5070380;28;20043;-42
2022/10/07 10:44:39;;;;;;;9.05;5.30;;;;;;;;;;5067148;28;20025;-44
2022/10/07 10:47:32;;;;;;;6.55;4.50;;;;;;;;;;5068034;28;20115;-44
2022/10/07 10:50:06;;;;;;;12.23;4.65;;;;;;;;;;5046246;28;20086;-44
2022/10/07 10:52:44;;;;;;;7.80;4.30;;;;;;;;;;5078818;28;20463;-45
2022/10/07 10:55:28;;;;;;;8.80;4.90;;;;;;;;;;5079410;28;20068;-43
2022/10/07 10:58:00;;;;;;;10.55;5.13;;;;;;;;;;5075388;28;20031;-40
2022/10/07 11:00:29;;;;;;;10.15;5.10;;;;;;;;;;5071123;28;20043;-44
2022/10/07 11:03:02;;;;;;;9.13;4.82;;;;;;;;;;5077368;28;20070;-45
2022/10/07 11:05:39;;;;;;;8.52;4.53;;;;;;;;;;5078370;28;20044;-44
2022/10/07 11:08:10;;;;;;;11.40;4.30;;;;;;;;;;5087098;28;20463;-44
2022/10/07 11:10:35;;;;;;;10.35;5.07;;;;;;;;;;5083194;28;20032;-43
2022/10/07 11:13:05;;;;;;;9.43;3.92;;;;;;;;;;5073643;28;20071;-43
2022/10/07 11:15:36;;;;;;;14.32;4.90;;;;;;;;;;5080552;28;20050;-44
2022/10/07 11:18:06;;;;;;;7.47;4.22;;;;;;;;;;5082431;28;20059;-45
2022/10/07 11:20:42;;;;;;;8.05;4.65;;;;;;;;;;5064706;28;20073;-45
2022/10/07 11:23:20;;;;;;;9.88;4.25;;;;;;;;;;5078836;28;20107;-43
2022/10/07 11:26:05;;;;;;;6.88;3.70;;;;;;;;;;5087887;28;20035;-44
2022/10/07 11:28:33;;;;;;;8.48;4.63;;;;;;;;;;5073545;28;20040;-46
2022/10/07 11:31:16;;;;;;;5.78;3.50;;;;;;;;;;5083407;28;20016;-41
2022/10/07 11:33:49;;;;;;;9.75;3.83;;;;;;;;;;5091698;28;20067;-44
2022/10/07 11:36:18;;;;;;;6.97;4.25;;;;;;;;;;5092699;28;20118;-40
2022/10/07 11:38:44;;;;;;;12.75;4.20;;;;;;;;;;5069352;28;20498;-41
2022/10/07 11:41:16;;;;;;;5.95;3.95;;;;;;;;;;5076167;28;20024;-43
2022/10/07 11:43:46;;;;;;;6.53;4.32;;;;;;;;;;5078285;28;20016;-42
2022/10/07 11:46:16;;;;;;;7.78;3.67;;;;;;;;;;5084094;28;20024;-41
2022/10/07 11:48:50;;;;;;;5.10;3.50;;;;;;;;;;5057957;28;20045;-46
2022/10/07 11:51:36;;;;;;;4.43;3.55;;;;;;;;;;5058882;28;20048;-39
2022/10/07 11:54:03;;;;;;;5.72;3.78;;;;;;;;;;5082302;28;20066;-40
2022/10/07 11:56:37;;;;;;;14.02;3.88;;;;;;;;;;5088905;28;20387;-43
2022/10/07 11:59:04;;;;;;;7.32;3.60;;;;;;;;;;5089494;28;20020;-42
2022/10/07 12:01:33;;;;;;;8.48;3.70;;;;;;;;;;5078380;28;20459;-46
2022/10/07 12:04:34;;;;;;;4.57;3.67;;;;;;;;;;5088941;28;20024;-43
2022/10/07 12:07:18;;;;;;;5.25;3.47;;;;;;;;;;4987942;28;20516;-46
2022/10/07 12:09:53;;;;;;;5.65;3.10;;;;;;;;;;5048582;28;20458;-41
2022/10/07 12:12:22;;;;;;;8.27;3.75;;;;;;;;;;5078852;28;20024;-45
2022/10/07 12:14:57;;;;;;;6.93;3.72;;;;;;;;;;5075204;28;20063;-44
2022/10/07 12:17:24;;;;;;;7.32;3.55;;;;;;;;;;5057539;28;20375;-44
2022/10/07 12:20:10;;;;;;;7.10;3.60;;;;;;;;;;5078512;28;20020;-43
2022/10/07 12:22:36;;;;;;;7.90;3.53;;;;;;;;;;5080766;28;20028;-45
2022/10/07 12:25:40;;;;;;;9.18;3.80;;;;;;;;;;5075615;28;20035;-45
2022/10/07 12:28:12;;;;;;;8.73;4.40;;;;;;;;;;5007572;28;20037;-43
2022/10/07 12:30:41;;;;;;;8.43;3.78;;;;;;;;;;5005328;28;20084;-44
2022/10/07 12:33:06;;;;;;;;;;;;;;;;;;5040383;28;20412;-44
2022/10/07 12:35:34;;;;;;;8.93;3.92;;;;;;;;;;5072650;28;20008;-45
2022/10/07 12:38:03;;;;;;;6.15;3.15;;;;;;;;;;5078403;28;20020;-44
2022/10/07 12:40:29;;;;;;;9.80;5.82;;;;;;;;;;5080480;28;20020;-44
2022/10/07 12:42:59;;;;;;;5.70;3.83;;;;;;;;;;5077671;28;20538;-41
2022/10/07 12:45:26;;;;;;;4.63;3.33;;;;;;;;;;5081992;28;20029;-47
2022/10/07 12:47:53;;;;;;;12.70;3.70;;;;;;;;;;5081105;28;20052;-44
2022/10/07 12:50:19;;;;;;;4.50;3.45;;;;;;;;;;5083142;28;20095;-44
2022/10/07 12:52:51;;;;;;;8.77;3.50;;;;;;;;;;5078206;28;20457;-44
2022/10/07 12:55:36;;;;;;;5.47;3.50;;;;;;;;;;5083628;28;20067;-45
2022/10/07 13:01:13;;;;;;;7.68;4.38;;;;;;;;;;5045953;28;20042;-41
2022/10/07 13:03:57;;;;;;;6.68;4.18;;;;;;;;;;5071670;28;20143;-44
2022/10/07 13:06:52;;;;;;;8.32;4.93;;;;;;;;;;5077399;28;20461;-44
2022/10/07 13:09:36;;;;;;;7.25;5.60;;;;;;;;;;5061272;28;20178;-45
2022/10/07 13:12:05;;;;;;;9.70;5.00;;;;;;;;;;5080626;28;20027;-47
2022/10/07 13:14:42;;;;;;;14.75;4.40;;;;;;;;;;5081126;28;20077;-46
2022/10/07 13:17:26;;;;;;;7.05;4.53;;;;;;;;;;5082213;28;20055;-43
2022/10/07 13:20:10;;;;;;;8.80;4.28;;;;;;;;;;5081018;28;20023;-44
2022/10/07 13:22:35;;;;;;;9.70;4.20;;;;;;;;;;5078658;28;20038;-44
2022/10/07 13:25:02;;;;;;;11.15;4.78;;;;;;;;;;5079059;28;20407;-44
2022/10/07 13:27:33;;;;;;;9.77;4.47;;;;;;;;;;5074785;28;20016;-44
2022/10/07 13:29:59;;;;;;;8.13;4.40;;;;;;;;;;5072897;28;20111;-43
2022/10/07 13:32:29;;;;;;;5.63;3.90;;;;;;;;;;5057038;28;20776;-44
2022/10/07 13:34:56;;;;;;;7.80;4.10;;;;;;;;;;5079343;28;20085;-42
2022/10/07 13:37:29;;;;;;;7.80;4.20;;;;;;;;;;5085624;28;20024;-42
2022/10/07 13:39:55;;;;;;;5.97;3.65;;;;;;;;;;5089687;28;20024;-42
2022/10/07 13:42:28;;;;;;;12.30;4.18;;;;;;;;;;5093191;28;20032;-42
2022/10/07 13:44:58;;;;;;;8.40;3.95;;;;;;;;;;5093237;28;20073;-40
2022/10/07 13:47:29;;;;;;;8.52;3.78;;;;;;;;;;5092957;28;20020;-42
2022/10/07 13:49:55;;;;;;;7.03;4.00;;;;;;;;;;5091140;28;20114;-43
2022/10/07 13:52:24;;;;;;;10.95;4.72;;;;;;;;;;5090989;28;20554;-44
2022/10/07 13:54:50;;;;;;;6.50;4.07;;;;;;;;;;5091934;28;20036;-42
2022/10/07 13:57:17;;;;;;;8.32;4.07;;;;;;;;;;5091735;28;20023;-42
2022/10/07 13:59:43;;;;;;;9.15;3.80;;;;;;;;;;5091468;28;20103;-40
2022/10/07 14:02:11;;;;;;;7.18;4.13;;;;;;;;;;5091066;28;20703;-45
2022/10/07 14:04:48;;;;;;;5.55;3.97;;;;;;;;;;5092836;28;20459;-42
2022/10/07 14:07:18;;;;;;;7.95;4.10;;;;;;;;;;5093370;28;20459;-42
2022/10/07 14:09:43;;;;;;;15.02;3.85;;;;;;;;;;5093367;28;20028;-40
2022/10/07 14:12:14;;;;;;;12.13;3.77;;;;;;;;;;5093277;28;20028;-41
2022/10/07 14:14:40;;;;;;;13.68;4.20;;;;;;;;;;5093036;28;20299;-39
2022/10/07 14:17:15;;;;;;;6.38;3.45;;;;;;;;;;5093118;28;20024;-43
2022/10/07 14:19:41;;;;;;;6.47;3.15;;;;;;;;;;5093090;28;20020;-41
2022/10/07 14:22:15;;;;;;;6.18;3.97;;;;;;;;;;5093285;28;20020;-42
2022/10/07 14:24:40;;;;;;;5.80;4.13;;;;;;;;;;5093125;28;20408;-40
2022/10/07 14:27:25;;;;;;;9.98;4.43;;;;;;;;;;5093111;28;20016;-43
2022/10/07 14:29:51;;;;;;;5.93;3.92;;;;;;;;;;5092636;28;20016;-40
2022/10/07 14:35:28;;;;;;;9.35;3.97;;;;;;;;;;5092889;28;20043;-39
2022/10/07 14:38:13;;;;;;;9.95;3.85;;;;;;;;;;5087828;28;20115;-40
2022/10/07 14:40:38;;;;;;;9.63;4.10;;;;;;;;;;5092326;28;20017;-39
2022/10/07 14:43:04;;;;;;;8.30;4.10;;;;;;;;;;5075188;28;20023;-40
2022/10/07 14:45:29;;;;;;;7.60;4.03;;;;;;;;;;5092563;28;20264;-41
2022/10/07 14:47:54;;;;;;;6.00;4.50;;;;;;;;;;5092866;28;20478;-43
2022/10/07 14:50:20;;;;;;;6.97;4.13;;;;;;;;;;5092558;28;20020;-42
2022/10/07 14:52:47;;;;;;;11.75;4.05;;;;;;;;;;5092561;28;20054;-41
2022/10/07 14:55:14;;;;;;;11.75;4.55;;;;;;;;;;5092537;28;20072;-41